sensor_id;sensor_type;location;lat;lon;timestamp;temperature;humidity
5962;DHT22;3007;50.770;0.250;2022-12-24T00:01:46;11.60;99.90
5962;DHT22;3007;50.770;0.250;2022-12-24T00:04:13;11.60;99.90
5962;DHT22;3007;50.770;0.250;2022-12-24T00:06:42;11.50;99.90
5962;DHT22;3007;50.770;0.250;2022-12-24T00:09:09;11.50;99.90
5962;DHT22;3007;50.770;0.250;2022-12-24T00:11:36;11.50;99.90
5962;DHT22;3007;50.770;0.250;2022-12-24T00:14:04;11.50;99.90
5962;DHT22;3007;50.770;0.250;2022-12-24T00:16:31;11.50;99.90
5962;DHT22;3007;50.770;0.250;2022-12-24T00:18:58;11.40;99.90
5962;DHT22;3007;50.770;0.250;2022-12-24T00:21:26;11.40;99.90
5962;DHT22;3007;50.770;0.250;2022-12-24T00:23:54;11.40;99.90
5962;DHT22;3007;50.770;0.250;2022-12-24T00:26:21;11.40;99.90
5962;DHT22;3007;50.770;0.250;2022-12-24T00:28:49;11.50;99.90
5962;DHT22;3007;50.770;0.250;2022-12-24T00:31:17;11.50;99.90
5962;DHT22;3007;50.770;0.250;2022-12-24T00:33:45;11.50;99.90
5962;DHT22;3007;50.770;0.250;2022-12-24T00:36:12;11.50;99.90
5962;DHT22;3007;50.770;0.250;2022-12-24T00:38:39;11.50;99.90
5962;DHT22;3007;50.770;0.250;2022-12-24T00:41:08;11.50;99.90
5962;DHT22;3007;50.770;0.250;2022-12-24T00:43:49;11.50;99.90
5962;DHT22;3007;50.770;0.250;2022-12-24T00:46:16;11.40;99.90
5962;DHT22;3007;50.770;0.250;2022-12-24T00:48:43;11.50;99.90
5962;DHT22;3007;50.770;0.250;2022-12-24T00:51:10;11.60;99.90
5962;DHT22;3007;50.770;0.250;2022-12-24T00:53:38;11.50;99.90
5962;DHT22;3007;50.770;0.250;2022-12-24T00:56:07;11.40;99.90
5962;DHT22;3007;50.770;0.250;2022-12-24T00:58:34;11.40;99.90
5962;DHT22;3007;50.770;0.250;2022-12-24T01:01:02;11.40;99.90
5962;DHT22;3007;50.770;0.250;2022-12-24T01:03:29;11.30;99.90
5962;DHT22;3007;50.770;0.250;2022-12-24T01:06:03;11.20;99.90
5962;DHT22;3007;50.770;0.250;2022-12-24T01:08:29;11.20;99.90
5962;DHT22;3007;50.770;0.250;2022-12-24T01:10:56;11.20;99.90
5962;DHT22;3007;50.770;0.250;2022-12-24T01:13:25;11.10;99.90
5962;DHT22;3007;50.770;0.250;2022-12-24T01:15:52;11.10;99.90
5962;DHT22;3007;50.770;0.250;2022-12-24T01:18:20;11.20;99.90
5962;DHT22;3007;50.770;0.250;2022-12-24T01:20:55;11.20;99.90
5962;DHT22;3007;50.770;0.250;2022-12-24T01:23:23;11.20;99.90
5962;DHT22;3007;50.770;0.250;2022-12-24T01:25:50;11.30;99.90
5962;DHT22;3007;50.770;0.250;2022-12-24T01:28:17;11.30;99.90
5962;DHT22;3007;50.770;0.250;2022-12-24T01:30:46;11.40;99.90
5962;DHT22;3007;50.770;0.250;2022-12-24T01:33:13;11.40;99.90
5962;DHT22;3007;50.770;0.250;2022-12-24T01:35:40;11.40;99.90
5962;DHT22;3007;50.770;0.250;2022-12-24T01:38:09;11.50;99.90
5962;DHT22;3007;50.770;0.250;2022-12-24T01:40:42;11.50;99.90
5962;DHT22;3007;50.770;0.250;2022-12-24T01:43:30;11.50;99.90
5962;DHT22;3007;50.770;0.250;2022-12-24T01:45:59;11.50;99.90
5962;DHT22;3007;50.770;0.250;2022-12-24T01:48:37;11.50;99.90
5962;DHT22;3007;50.770;0.250;2022-12-24T01:51:10;11.50;99.90
5962;DHT22;3007;50.770;0.250;2022-12-24T01:53:43;11.50;99.90
5962;DHT22;3007;50.770;0.250;2022-12-24T01:56:12;11.50;99.90
5962;DHT22;3007;50.770;0.250;2022-12-24T01:58:42;11.50;99.90
5962;DHT22;3007;50.770;0.250;2022-12-24T02:01:14;11.50;99.90
5962;DHT22;3007;50.770;0.250;2022-12-24T02:03:41;11.60;99.90
5962;DHT22;3007;50.770;0.250;2022-12-24T02:06:09;11.50;99.90
5962;DHT22;3007;50.770;0.250;2022-12-24T02:08:37;11.60;99.90
5962;DHT22;3007;50.770;0.250;2022-12-24T02:11:11;11.60;99.90
5962;DHT22;3007;50.770;0.250;2022-12-24T02:13:40;11.60;99.90
5962;DHT22;3007;50.770;0.250;2022-12-24T02:16:18;11.60;99.90
5962;DHT22;3007;50.770;0.250;2022-12-24T02:18:52;11.60;99.90
5962;DHT22;3007;50.770;0.250;2022-12-24T02:21:43;11.60;99.90
5962;DHT22;3007;50.770;0.250;2022-12-24T02:24:45;11.60;99.90
5962;DHT22;3007;50.770;0.250;2022-12-24T02:27:23;11.60;99.90
5962;DHT22;3007;50.770;0.250;2022-12-24T02:30:13;11.60;99.90
5962;DHT22;3007;50.770;0.250;2022-12-24T02:32:58;11.60;99.90
5962;DHT22;3007;50.770;0.250;2022-12-24T02:35:34;11.60;99.90
5962;DHT22;3007;50.770;0.250;2022-12-24T02:38:06;11.60;99.90
5962;DHT22;3007;50.770;0.250;2022-12-24T02:40:37;11.60;99.90
5962;DHT22;3007;50.770;0.250;2022-12-24T02:43:11;11.50;99.90
5962;DHT22;3007;50.770;0.250;2022-12-24T02:45:44;11.50;99.90
5962;DHT22;3007;50.770;0.250;2022-12-24T02:48:14;11.50;99.90
5962;DHT22;3007;50.770;0.250;2022-12-24T02:50:54;11.50;99.90
5962;DHT22;3007;50.770;0.250;2022-12-24T02:53:22;11.60;99.90
5962;DHT22;3007;50.770;0.250;2022-12-24T02:58:59;11.50;99.90
5962;DHT22;3007;50.770;0.250;2022-12-24T03:01:36;11.50;99.90
5962;DHT22;3007;50.770;0.250;2022-12-24T03:04:11;11.50;99.90
5962;DHT22;3007;50.770;0.250;2022-12-24T03:06:46;11.50;99.90
5962;DHT22;3007;50.770;0.250;2022-12-24T03:09:23;11.50;99.90
5962;DHT22;3007;50.770;0.250;2022-12-24T03:11:57;11.50;99.90
5962;DHT22;3007;50.770;0.250;2022-12-24T03:14:26;11.50;99.90
5962;DHT22;3007;50.770;0.250;2022-12-24T03:16:56;11.50;99.90
5962;DHT22;3007;50.770;0.250;2022-12-24T03:19:24;11.50;99.90
5962;DHT22;3007;50.770;0.250;2022-12-24T03:21:54;11.50;99.90
5962;DHT22;3007;50.770;0.250;2022-12-24T03:24:22;11.40;99.90
5962;DHT22;3007;50.770;0.250;2022-12-24T03:26:51;11.40;99.90
5962;DHT22;3007;50.770;0.250;2022-12-24T03:29:19;11.40;99.90
5962;DHT22;3007;50.770;0.250;2022-12-24T03:31:48;11.40;99.90
5962;DHT22;3007;50.770;0.250;2022-12-24T03:34:18;11.40;99.90
5962;DHT22;3007;50.770;0.250;2022-12-24T03:36:46;11.30;99.90
5962;DHT22;3007;50.770;0.250;2022-12-24T03:39:14;11.10;99.90
5962;DHT22;3007;50.770;0.250;2022-12-24T03:41:41;11.20;99.90
5962;DHT22;3007;50.770;0.250;2022-12-24T03:44:08;11.20;99.90
5962;DHT22;3007;50.770;0.250;2022-12-24T03:46:35;11.20;99.90
5962;DHT22;3007;50.770;0.250;2022-12-24T03:49:02;11.20;99.90
5962;DHT22;3007;50.770;0.250;2022-12-24T03:51:30;11.20;99.90
5962;DHT22;3007;50.770;0.250;2022-12-24T03:53:58;11.20;99.90
5962;DHT22;3007;50.770;0.250;2022-12-24T03:56:26;11.10;99.90
5962;DHT22;3007;50.770;0.250;2022-12-24T03:58:53;11.00;99.90
5962;DHT22;3007;50.770;0.250;2022-12-24T04:01:20;11.00;99.90
5962;DHT22;3007;50.770;0.250;2022-12-24T04:03:47;10.90;99.90
5962;DHT22;3007;50.770;0.250;2022-12-24T04:06:15;10.80;99.90
5962;DHT22;3007;50.770;0.250;2022-12-24T04:08:45;10.80;99.90
5962;DHT22;3007;50.770;0.250;2022-12-24T04:11:13;10.70;99.90
5962;DHT22;3007;50.770;0.250;2022-12-24T04:13:41;10.60;99.90
5962;DHT22;3007;50.770;0.250;2022-12-24T04:16:09;10.60;99.90
5962;DHT22;3007;50.770;0.250;2022-12-24T04:18:37;10.50;99.90
5962;DHT22;3007;50.770;0.250;2022-12-24T04:21:05;10.50;99.90
5962;DHT22;3007;50.770;0.250;2022-12-24T04:23:34;10.50;99.90
5962;DHT22;3007;50.770;0.250;2022-12-24T04:26:04;10.40;99.90
5962;DHT22;3007;50.770;0.250;2022-12-24T04:28:32;10.40;99.90
5962;DHT22;3007;50.770;0.250;2022-12-24T04:31:01;10.40;99.90
5962;DHT22;3007;50.770;0.250;2022-12-24T04:33:28;10.40;99.90
5962;DHT22;3007;50.770;0.250;2022-12-24T04:35:56;10.40;99.90
5962;DHT22;3007;50.770;0.250;2022-12-24T04:38:24;10.40;99.90
5962;DHT22;3007;50.770;0.250;2022-12-24T04:40:57;10.40;99.90
5962;DHT22;3007;50.770;0.250;2022-12-24T04:43:25;10.40;99.90
5962;DHT22;3007;50.770;0.250;2022-12-24T04:45:53;10.40;99.90
5962;DHT22;3007;50.770;0.250;2022-12-24T04:48:20;10.30;99.90
5962;DHT22;3007;50.770;0.250;2022-12-24T04:50:47;10.30;99.90
5962;DHT22;3007;50.770;0.250;2022-12-24T04:53:14;10.30;99.90
5962;DHT22;3007;50.770;0.250;2022-12-24T04:55:43;10.30;99.90
5962;DHT22;3007;50.770;0.250;2022-12-24T04:58:11;10.30;99.90
5962;DHT22;3007;50.770;0.250;2022-12-24T05:00:40;10.30;99.90
5962;DHT22;3007;50.770;0.250;2022-12-24T05:03:07;10.30;99.90
5962;DHT22;3007;50.770;0.250;2022-12-24T05:05:35;10.30;99.90
5962;DHT22;3007;50.770;0.250;2022-12-24T05:08:02;10.20;99.90
5962;DHT22;3007;50.770;0.250;2022-12-24T05:10:29;10.20;99.90
5962;DHT22;3007;50.770;0.250;2022-12-24T05:12:56;10.20;99.90
5962;DHT22;3007;50.770;0.250;2022-12-24T05:15:23;10.20;99.90
5962;DHT22;3007;50.770;0.250;2022-12-24T05:17:52;10.10;99.90
5962;DHT22;3007;50.770;0.250;2022-12-24T05:20:19;10.10;99.90
5962;DHT22;3007;50.770;0.250;2022-12-24T05:22:46;10.10;99.90
5962;DHT22;3007;50.770;0.250;2022-12-24T05:25:42;10.10;99.90
5962;DHT22;3007;50.770;0.250;2022-12-24T05:28:27;10.00;99.90
5962;DHT22;3007;50.770;0.250;2022-12-24T05:30:54;10.00;99.90
5962;DHT22;3007;50.770;0.250;2022-12-24T05:33:22;10.00;99.90
5962;DHT22;3007;50.770;0.250;2022-12-24T05:35:50;10.00;99.90
5962;DHT22;3007;50.770;0.250;2022-12-24T05:38:17;10.00;99.90
5962;DHT22;3007;50.770;0.250;2022-12-24T05:40:45;9.90;99.90
5962;DHT22;3007;50.770;0.250;2022-12-24T05:43:12;9.90;99.90
5962;DHT22;3007;50.770;0.250;2022-12-24T05:45:39;9.90;99.90
5962;DHT22;3007;50.770;0.250;2022-12-24T05:48:07;9.90;99.90
5962;DHT22;3007;50.770;0.250;2022-12-24T05:50:37;9.90;99.90
5962;DHT22;3007;50.770;0.250;2022-12-24T05:53:06;9.90;99.90
5962;DHT22;3007;50.770;0.250;2022-12-24T05:55:34;9.90;99.90
5962;DHT22;3007;50.770;0.250;2022-12-24T05:58:01;9.90;99.90
5962;DHT22;3007;50.770;0.250;2022-12-24T06:00:28;9.90;99.90
5962;DHT22;3007;50.770;0.250;2022-12-24T06:02:55;9.90;99.90
5962;DHT22;3007;50.770;0.250;2022-12-24T06:05:22;9.90;99.90
5962;DHT22;3007;50.770;0.250;2022-12-24T06:07:51;9.90;99.90
5962;DHT22;3007;50.770;0.250;2022-12-24T06:10:18;9.90;99.90
5962;DHT22;3007;50.770;0.250;2022-12-24T06:12:45;9.90;99.90
5962;DHT22;3007;50.770;0.250;2022-12-24T06:15:12;9.90;99.90
5962;DHT22;3007;50.770;0.250;2022-12-24T06:17:42;10.00;99.90
5962;DHT22;3007;50.770;0.250;2022-12-24T06:20:10;9.90;99.90
5962;DHT22;3007;50.770;0.250;2022-12-24T06:22:38;9.90;99.90
5962;DHT22;3007;50.770;0.250;2022-12-24T06:25:07;9.90;99.90
5962;DHT22;3007;50.770;0.250;2022-12-24T06:27:34;9.90;99.90
5962;DHT22;3007;50.770;0.250;2022-12-24T06:30:02;9.90;99.90
5962;DHT22;3007;50.770;0.250;2022-12-24T06:32:29;9.90;99.90
5962;DHT22;3007;50.770;0.250;2022-12-24T06:34:56;9.90;99.90
5962;DHT22;3007;50.770;0.250;2022-12-24T06:37:23;9.80;99.90
5962;DHT22;3007;50.770;0.250;2022-12-24T06:39:50;9.80;99.90
5962;DHT22;3007;50.770;0.250;2022-12-24T06:42:19;9.80;99.90
5962;DHT22;3007;50.770;0.250;2022-12-24T06:44:46;9.80;99.90
5962;DHT22;3007;50.770;0.250;2022-12-24T06:47:13;9.80;99.90
5962;DHT22;3007;50.770;0.250;2022-12-24T06:49:40;9.70;99.90
5962;DHT22;3007;50.770;0.250;2022-12-24T06:52:07;9.70;99.90
5962;DHT22;3007;50.770;0.250;2022-12-24T06:54:34;9.60;99.90
5962;DHT22;3007;50.770;0.250;2022-12-24T06:57:01;9.60;99.90
5962;DHT22;3007;50.770;0.250;2022-12-24T06:59:30;9.60;99.90
5962;DHT22;3007;50.770;0.250;2022-12-24T07:01:57;9.60;99.90
5962;DHT22;3007;50.770;0.250;2022-12-24T07:04:24;9.50;99.90
5962;DHT22;3007;50.770;0.250;2022-12-24T07:06:51;9.50;99.90
5962;DHT22;3007;50.770;0.250;2022-12-24T07:09:18;9.40;99.90
5962;DHT22;3007;50.770;0.250;2022-12-24T07:11:45;9.40;99.90
5962;DHT22;3007;50.770;0.250;2022-12-24T07:14:13;9.50;99.90
5962;DHT22;3007;50.770;0.250;2022-12-24T07:16:41;9.40;99.90
5962;DHT22;3007;50.770;0.250;2022-12-24T07:19:08;9.30;99.90
5962;DHT22;3007;50.770;0.250;2022-12-24T07:21:35;9.30;99.90
5962;DHT22;3007;50.770;0.250;2022-12-24T07:24:02;9.30;99.90
5962;DHT22;3007;50.770;0.250;2022-12-24T07:26:30;9.20;99.90
5962;DHT22;3007;50.770;0.250;2022-12-24T07:28:57;9.20;99.90
5962;DHT22;3007;50.770;0.250;2022-12-24T07:31:24;9.20;99.90
5962;DHT22;3007;50.770;0.250;2022-12-24T07:33:52;9.10;99.90
5962;DHT22;3007;50.770;0.250;2022-12-24T07:36:21;9.10;99.90
5962;DHT22;3007;50.770;0.250;2022-12-24T07:38:49;9.10;99.90
5962;DHT22;3007;50.770;0.250;2022-12-24T07:41:17;9.00;99.90
5962;DHT22;3007;50.770;0.250;2022-12-24T07:43:44;9.10;99.90
5962;DHT22;3007;50.770;0.250;2022-12-24T07:46:11;8.90;99.90
5962;DHT22;3007;50.770;0.250;2022-12-24T07:48:38;8.90;99.90
5962;DHT22;3007;50.770;0.250;2022-12-24T07:51:07;8.80;99.90
5962;DHT22;3007;50.770;0.250;2022-12-24T07:53:34;8.80;99.90
5962;DHT22;3007;50.770;0.250;2022-12-24T07:56:01;8.80;99.90
5962;DHT22;3007;50.770;0.250;2022-12-24T07:58:28;8.80;99.90
5962;DHT22;3007;50.770;0.250;2022-12-24T08:00:57;8.80;99.90
5962;DHT22;3007;50.770;0.250;2022-12-24T08:03:25;8.80;99.90
5962;DHT22;3007;50.770;0.250;2022-12-24T08:05:52;8.70;99.90
5962;DHT22;3007;50.770;0.250;2022-12-24T08:08:20;8.70;99.90
5962;DHT22;3007;50.770;0.250;2022-12-24T08:10:47;8.60;99.90
5962;DHT22;3007;50.770;0.250;2022-12-24T08:13:14;8.60;99.90
5962;DHT22;3007;50.770;0.250;2022-12-24T08:15:42;8.60;99.90
5962;DHT22;3007;50.770;0.250;2022-12-24T08:18:10;8.60;99.90
5962;DHT22;3007;50.770;0.250;2022-12-24T08:20:38;8.60;99.90
5962;DHT22;3007;50.770;0.250;2022-12-24T08:23:05;8.50;99.90
5962;DHT22;3007;50.770;0.250;2022-12-24T08:25:35;8.60;99.90
5962;DHT22;3007;50.770;0.250;2022-12-24T08:28:02;8.60;99.90
5962;DHT22;3007;50.770;0.250;2022-12-24T08:30:30;8.60;99.90
5962;DHT22;3007;50.770;0.250;2022-12-24T08:32:57;8.60;99.90
5962;DHT22;3007;50.770;0.250;2022-12-24T08:35:24;8.60;99.90
5962;DHT22;3007;50.770;0.250;2022-12-24T08:37:51;8.60;99.90
5962;DHT22;3007;50.770;0.250;2022-12-24T08:40:19;8.60;99.90
5962;DHT22;3007;50.770;0.250;2022-12-24T08:42:47;8.60;99.90
5962;DHT22;3007;50.770;0.250;2022-12-24T08:45:14;8.60;99.90
5962;DHT22;3007;50.770;0.250;2022-12-24T08:47:42;8.70;99.90
5962;DHT22;3007;50.770;0.250;2022-12-24T08:50:09;8.60;99.90
5962;DHT22;3007;50.770;0.250;2022-12-24T08:52:38;8.70;99.90
5962;DHT22;3007;50.770;0.250;2022-12-24T08:55:06;8.70;99.90
5962;DHT22;3007;50.770;0.250;2022-12-24T08:57:34;8.70;99.90
5962;DHT22;3007;50.770;0.250;2022-12-24T09:00:04;8.80;99.90
5962;DHT22;3007;50.770;0.250;2022-12-24T09:02:32;8.90;99.90
5962;DHT22;3007;50.770;0.250;2022-12-24T09:04:59;8.90;99.90
5962;DHT22;3007;50.770;0.250;2022-12-24T09:07:26;9.00;99.90
5962;DHT22;3007;50.770;0.250;2022-12-24T09:09:53;9.10;99.90
5962;DHT22;3007;50.770;0.250;2022-12-24T09:12:20;9.20;99.90
5962;DHT22;3007;50.770;0.250;2022-12-24T09:14:49;9.20;99.90
5962;DHT22;3007;50.770;0.250;2022-12-24T09:17:18;9.30;99.90
5962;DHT22;3007;50.770;0.250;2022-12-24T09:19:45;9.30;99.90
5962;DHT22;3007;50.770;0.250;2022-12-24T09:22:13;9.30;99.90
5962;DHT22;3007;50.770;0.250;2022-12-24T09:24:40;9.30;99.90
5962;DHT22;3007;50.770;0.250;2022-12-24T09:27:07;9.30;99.90
5962;DHT22;3007;50.770;0.250;2022-12-24T09:29:34;9.30;99.90
5962;DHT22;3007;50.770;0.250;2022-12-24T09:32:01;9.30;99.90
5962;DHT22;3007;50.770;0.250;2022-12-24T09:34:30;9.30;99.90
5962;DHT22;3007;50.770;0.250;2022-12-24T09:36:57;9.30;99.90
5962;DHT22;3007;50.770;0.250;2022-12-24T09:39:25;9.30;99.90
5962;DHT22;3007;50.770;0.250;2022-12-24T09:41:59;9.40;99.90
5962;DHT22;3007;50.770;0.250;2022-12-24T09:44:36;9.40;99.90
5962;DHT22;3007;50.770;0.250;2022-12-24T09:47:10;9.40;99.90
5962;DHT22;3007;50.770;0.250;2022-12-24T09:49:45;9.40;99.90
5962;DHT22;3007;50.770;0.250;2022-12-24T09:52:18;9.50;99.90
5962;DHT22;3007;50.770;0.250;2022-12-24T09:54:56;9.60;99.90
5962;DHT22;3007;50.770;0.250;2022-12-24T09:57:27;9.60;99.90
5962;DHT22;3007;50.770;0.250;2022-12-24T09:59:55;9.70;99.90
5962;DHT22;3007;50.770;0.250;2022-12-24T10:02:22;9.80;99.90
5962;DHT22;3007;50.770;0.250;2022-12-24T10:04:51;9.80;99.90
5962;DHT22;3007;50.770;0.250;2022-12-24T10:07:30;9.90;99.90
5962;DHT22;3007;50.770;0.250;2022-12-24T10:10:05;9.90;99.90
5962;DHT22;3007;50.770;0.250;2022-12-24T10:12:42;10.00;99.90
5962;DHT22;3007;50.770;0.250;2022-12-24T10:15:14;10.00;99.90
5962;DHT22;3007;50.770;0.250;2022-12-24T10:17:55;10.10;99.90
5962;DHT22;3007;50.770;0.250;2022-12-24T10:20:43;10.20;99.90
5962;DHT22;3007;50.770;0.250;2022-12-24T10:23:17;10.30;99.90
5962;DHT22;3007;50.770;0.250;2022-12-24T10:25:51;10.40;99.90
5962;DHT22;3007;50.770;0.250;2022-12-24T10:28:27;10.40;99.90
5962;DHT22;3007;50.770;0.250;2022-12-24T10:30:58;10.40;99.90
5962;DHT22;3007;50.770;0.250;2022-12-24T10:33:31;10.50;99.90
5962;DHT22;3007;50.770;0.250;2022-12-24T10:36:01;10.60;99.90
5962;DHT22;3007;50.770;0.250;2022-12-24T10:38:29;10.60;99.90
5962;DHT22;3007;50.770;0.250;2022-12-24T10:40:58;10.60;99.90
5962;DHT22;3007;50.770;0.250;2022-12-24T10:43:28;10.70;99.90
5962;DHT22;3007;50.770;0.250;2022-12-24T10:45:58;10.80;99.90
5962;DHT22;3007;50.770;0.250;2022-12-24T10:48:29;10.90;99.90
5962;DHT22;3007;50.770;0.250;2022-12-24T10:51:01;11.00;99.90
5962;DHT22;3007;50.770;0.250;2022-12-24T10:53:37;11.00;99.90
5962;DHT22;3007;50.770;0.250;2022-12-24T10:56:08;11.10;99.90
5962;DHT22;3007;50.770;0.250;2022-12-24T10:58:36;11.20;99.90
5962;DHT22;3007;50.770;0.250;2022-12-24T11:01:09;11.20;99.90
5962;DHT22;3007;50.770;0.250;2022-12-24T11:03:39;11.40;99.90
5962;DHT22;3007;50.770;0.250;2022-12-24T11:06:10;11.40;99.90
5962;DHT22;3007;50.770;0.250;2022-12-24T11:08:40;11.40;99.90
5962;DHT22;3007;50.770;0.250;2022-12-24T11:11:09;11.50;99.90
5962;DHT22;3007;50.770;0.250;2022-12-24T11:13:39;11.60;99.90
5962;DHT22;3007;50.770;0.250;2022-12-24T11:16:14;11.60;99.90
5962;DHT22;3007;50.770;0.250;2022-12-24T11:18:47;11.70;99.90
5962;DHT22;3007;50.770;0.250;2022-12-24T11:21:21;11.70;99.90
5962;DHT22;3007;50.770;0.250;2022-12-24T11:23:51;11.70;99.90
5962;DHT22;3007;50.770;0.250;2022-12-24T11:26:25;11.80;99.90
5962;DHT22;3007;50.770;0.250;2022-12-24T11:29:05;11.80;99.90
5962;DHT22;3007;50.770;0.250;2022-12-24T11:31:32;11.90;99.90
5962;DHT22;3007;50.770;0.250;2022-12-24T11:34:18;11.90;99.90
5962;DHT22;3007;50.770;0.250;2022-12-24T11:36:49;12.00;99.90
5962;DHT22;3007;50.770;0.250;2022-12-24T11:39:20;12.00;99.90
5962;DHT22;3007;50.770;0.250;2022-12-24T11:41:48;12.00;99.90
5962;DHT22;3007;50.770;0.250;2022-12-24T11:44:23;12.00;99.90
5962;DHT22;3007;50.770;0.250;2022-12-24T11:46:51;12.10;99.90
5962;DHT22;3007;50.770;0.250;2022-12-24T11:49:26;12.10;99.90
5962;DHT22;3007;50.770;0.250;2022-12-24T11:52:13;12.10;99.90
5962;DHT22;3007;50.770;0.250;2022-12-24T11:54:50;12.20;99.90
5962;DHT22;3007;50.770;0.250;2022-12-24T11:57:29;12.20;99.90
5962;DHT22;3007;50.770;0.250;2022-12-24T11:59:58;12.20;99.90
5962;DHT22;3007;50.770;0.250;2022-12-24T12:02:27;12.20;99.90
5962;DHT22;3007;50.770;0.250;2022-12-24T12:04:58;12.20;99.90
5962;DHT22;3007;50.770;0.250;2022-12-24T12:07:29;12.20;99.90
5962;DHT22;3007;50.770;0.250;2022-12-24T12:10:01;12.30;99.90
5962;DHT22;3007;50.770;0.250;2022-12-24T12:12:31;12.30;99.90
5962;DHT22;3007;50.770;0.250;2022-12-24T12:15:04;12.30;99.90
5962;DHT22;3007;50.770;0.250;2022-12-24T12:17:33;12.30;99.90
5962;DHT22;3007;50.770;0.250;2022-12-24T12:20:05;12.20;99.90
5962;DHT22;3007;50.770;0.250;2022-12-24T12:22:39;12.30;99.90
5962;DHT22;3007;50.770;0.250;2022-12-24T12:25:18;12.30;99.90
5962;DHT22;3007;50.770;0.250;2022-12-24T12:27:49;12.30;99.90
5962;DHT22;3007;50.770;0.250;2022-12-24T12:30:19;12.30;99.90
5962;DHT22;3007;50.770;0.250;2022-12-24T12:32:50;12.30;99.90
5962;DHT22;3007;50.770;0.250;2022-12-24T12:35:24;12.30;99.90
5962;DHT22;3007;50.770;0.250;2022-12-24T12:37:57;12.40;99.90
5962;DHT22;3007;50.770;0.250;2022-12-24T12:43:53;12.40;99.90
5962;DHT22;3007;50.770;0.250;2022-12-24T12:46:32;12.50;99.90
5962;DHT22;3007;50.770;0.250;2022-12-24T12:49:12;12.50;99.90
5962;DHT22;3007;50.770;0.250;2022-12-24T12:51:46;12.50;99.90
5962;DHT22;3007;50.770;0.250;2022-12-24T12:54:31;12.50;99.90
5962;DHT22;3007;50.770;0.250;2022-12-24T12:57:05;12.50;99.90
5962;DHT22;3007;50.770;0.250;2022-12-24T12:59:36;12.50;99.90
5962;DHT22;3007;50.770;0.250;2022-12-24T13:02:24;12.50;99.90
5962;DHT22;3007;50.770;0.250;2022-12-24T13:08:34;12.60;99.90
5962;DHT22;3007;50.770;0.250;2022-12-24T13:11:27;12.60;99.90
5962;DHT22;3007;50.770;0.250;2022-12-24T13:14:10;12.60;99.90
5962;DHT22;3007;50.770;0.250;2022-12-24T13:20:04;12.60;99.90
5962;DHT22;3007;50.770;0.250;2022-12-24T13:22:37;12.70;99.90
5962;DHT22;3007;50.770;0.250;2022-12-24T13:25:04;12.60;99.90
5962;DHT22;3007;50.770;0.250;2022-12-24T13:27:33;12.70;99.90
5962;DHT22;3007;50.770;0.250;2022-12-24T13:30:02;12.70;99.90
5962;DHT22;3007;50.770;0.250;2022-12-24T13:32:48;12.70;99.90
5962;DHT22;3007;50.770;0.250;2022-12-24T13:35:34;12.70;99.90
5962;DHT22;3007;50.770;0.250;2022-12-24T13:44:26;12.70;99.90
5962;DHT22;3007;50.770;0.250;2022-12-24T13:47:03;12.70;99.90
5962;DHT22;3007;50.770;0.250;2022-12-24T13:49:36;12.70;99.90
5962;DHT22;3007;50.770;0.250;2022-12-24T13:52:23;12.70;99.90
5962;DHT22;3007;50.770;0.250;2022-12-24T13:55:15;12.70;99.90
5962;DHT22;3007;50.770;0.250;2022-12-24T13:57:52;12.70;99.90
5962;DHT22;3007;50.770;0.250;2022-12-24T14:00:33;12.70;99.90
5962;DHT22;3007;50.770;0.250;2022-12-24T14:03:06;12.60;99.90
5962;DHT22;3007;50.770;0.250;2022-12-24T14:05:47;12.60;99.90
5962;DHT22;3007;50.770;0.250;2022-12-24T14:08:26;12.60;99.90
5962;DHT22;3007;50.770;0.250;2022-12-24T14:11:04;12.60;99.90
5962;DHT22;3007;50.770;0.250;2022-12-24T14:16:47;12.50;99.90
5962;DHT22;3007;50.770;0.250;2022-12-24T14:19:19;12.50;99.90
5962;DHT22;3007;50.770;0.250;2022-12-24T14:21:58;12.40;99.90
5962;DHT22;3007;50.770;0.250;2022-12-24T14:24:32;12.40;99.90
5962;DHT22;3007;50.770;0.250;2022-12-24T14:27:05;12.40;99.90
5962;DHT22;3007;50.770;0.250;2022-12-24T14:29:38;12.40;99.90
5962;DHT22;3007;50.770;0.250;2022-12-24T14:32:14;12.30;99.90
5962;DHT22;3007;50.770;0.250;2022-12-24T14:34:42;12.30;99.90
5962;DHT22;3007;50.770;0.250;2022-12-24T14:37:10;12.30;99.90
5962;DHT22;3007;50.770;0.250;2022-12-24T14:39:42;12.30;99.90
5962;DHT22;3007;50.770;0.250;2022-12-24T14:42:23;12.30;99.90
5962;DHT22;3007;50.770;0.250;2022-12-24T14:44:58;12.30;99.90
5962;DHT22;3007;50.770;0.250;2022-12-24T14:47:33;12.30;99.90
5962;DHT22;3007;50.770;0.250;2022-12-24T14:50:47;12.30;99.90
5962;DHT22;3007;50.770;0.250;2022-12-24T14:53:25;12.20;99.90
5962;DHT22;3007;50.770;0.250;2022-12-24T14:55:53;12.20;99.90
5962;DHT22;3007;50.770;0.250;2022-12-24T14:58:24;12.20;99.90
5962;DHT22;3007;50.770;0.250;2022-12-24T15:00:54;12.20;99.90
5962;DHT22;3007;50.770;0.250;2022-12-24T15:03:25;12.20;99.90
5962;DHT22;3007;50.770;0.250;2022-12-24T15:05:55;12.10;99.90
5962;DHT22;3007;50.770;0.250;2022-12-24T15:08:27;12.10;99.90
5962;DHT22;3007;50.770;0.250;2022-12-24T15:10:59;12.10;99.90
5962;DHT22;3007;50.770;0.250;2022-12-24T15:13:30;12.10;99.90
5962;DHT22;3007;50.770;0.250;2022-12-24T15:15:59;12.10;99.90
5962;DHT22;3007;50.770;0.250;2022-12-24T15:18:31;12.10;99.90
5962;DHT22;3007;50.770;0.250;2022-12-24T15:21:02;12.10;99.90
5962;DHT22;3007;50.770;0.250;2022-12-24T15:23:31;12.10;99.90
5962;DHT22;3007;50.770;0.250;2022-12-24T15:26:07;12.10;99.90
5962;DHT22;3007;50.770;0.250;2022-12-24T15:28:36;12.10;99.90
5962;DHT22;3007;50.770;0.250;2022-12-24T15:31:07;12.10;99.90
5962;DHT22;3007;50.770;0.250;2022-12-24T15:33:38;12.10;99.90
5962;DHT22;3007;50.770;0.250;2022-12-24T15:36:07;12.10;99.90
5962;DHT22;3007;50.770;0.250;2022-12-24T15:38:36;12.10;99.90
5962;DHT22;3007;50.770;0.250;2022-12-24T15:41:07;12.10;99.90
5962;DHT22;3007;50.770;0.250;2022-12-24T15:43:40;12.10;99.90
5962;DHT22;3007;50.770;0.250;2022-12-24T15:46:07;12.10;99.90
5962;DHT22;3007;50.770;0.250;2022-12-24T15:48:36;12.10;99.90
5962;DHT22;3007;50.770;0.250;2022-12-24T15:51:04;12.10;99.90
5962;DHT22;3007;50.770;0.250;2022-12-24T15:53:34;12.10;99.90
5962;DHT22;3007;50.770;0.250;2022-12-24T15:56:07;12.10;99.90
5962;DHT22;3007;50.770;0.250;2022-12-24T15:58:36;12.10;99.90
5962;DHT22;3007;50.770;0.250;2022-12-24T16:03:58;12.00;99.90
5962;DHT22;3007;50.770;0.250;2022-12-24T16:06:26;12.00;99.90
5962;DHT22;3007;50.770;0.250;2022-12-24T16:08:54;12.00;99.90
5962;DHT22;3007;50.770;0.250;2022-12-24T16:11:24;12.00;99.90
5962;DHT22;3007;50.770;0.250;2022-12-24T16:14:01;12.00;99.90
5962;DHT22;3007;50.770;0.250;2022-12-24T16:16:36;11.90;99.90
5962;DHT22;3007;50.770;0.250;2022-12-24T16:19:05;11.90;99.90
5962;DHT22;3007;50.770;0.250;2022-12-24T16:21:35;11.90;99.90
5962;DHT22;3007;50.770;0.250;2022-12-24T16:24:06;11.90;99.90
5962;DHT22;3007;50.770;0.250;2022-12-24T16:26:34;11.90;99.90
5962;DHT22;3007;50.770;0.250;2022-12-24T16:29:03;11.90;99.90
5962;DHT22;3007;50.770;0.250;2022-12-24T16:31:32;11.90;99.90
5962;DHT22;3007;50.770;0.250;2022-12-24T16:34:00;11.90;99.90
5962;DHT22;3007;50.770;0.250;2022-12-24T16:36:30;11.90;99.90
5962;DHT22;3007;50.770;0.250;2022-12-24T16:38:57;11.90;99.90
5962;DHT22;3007;50.770;0.250;2022-12-24T16:41:42;11.90;99.90
5962;DHT22;3007;50.770;0.250;2022-12-24T16:44:26;11.90;99.90
5962;DHT22;3007;50.770;0.250;2022-12-24T16:46:54;11.90;99.90
5962;DHT22;3007;50.770;0.250;2022-12-24T16:49:21;11.90;99.90
5962;DHT22;3007;50.770;0.250;2022-12-24T16:51:50;11.90;99.90
5962;DHT22;3007;50.770;0.250;2022-12-24T16:54:17;11.90;99.90
5962;DHT22;3007;50.770;0.250;2022-12-24T16:56:44;11.90;99.90